createdAt,value
2022-12-05T00:00:32.111Z,101451.03
2022-12-05T00:02:58.456Z,101442.50
2022-12-05T00:05:24.787Z,101446.81
2022-12-05T00:07:51.199Z,101444.97
2022-12-05T00:10:17.664Z,101440.56
2022-12-05T00:12:45.312Z,101442.41
2022-12-05T00:15:11.791Z,101447.56
2022-12-05T00:17:38.595Z,101450.13
2022-12-05T00:20:05.563Z,101449.34
2022-12-05T00:22:31.888Z,101448.41
2022-12-05T00:24:58.149Z,101449.09
2022-12-05T00:27:24.466Z,101448.34
2022-12-05T00:29:52.191Z,101452.56
2022-12-05T00:32:18.573Z,101444.88
2022-12-05T00:34:44.948Z,101450.97
2022-12-05T00:37:11.236Z,101444.09
2022-12-05T00:39:37.552Z,101442.50
2022-12-05T00:42:03.863Z,101439.78
2022-12-05T00:44:30.167Z,101441.66
2022-12-05T00:46:57.852Z,101439.78
2022-12-05T00:49:24.165Z,101438.09
2022-12-05T00:51:50.504Z,101441.50
2022-12-05T00:54:16.821Z,101446.72
2022-12-05T00:56:43.402Z,101453.66
2022-12-05T00:59:12.727Z,101449.44
2022-12-05T01:01:39.701Z,101455.34
2022-12-05T01:04:10.252Z,101453.66
2022-12-05T01:06:36.812Z,101449.44
2022-12-05T01:09:04.449Z,101451.28
2022-12-05T01:11:31.696Z,101449.59
2022-12-05T01:13:59.421Z,101448.78
2022-12-05T01:16:27.043Z,101452.16
2022-12-05T01:18:53.812Z,101445.97
2022-12-05T01:21:21.599Z,101451.22
2022-12-05T01:23:48.162Z,101456.38
2022-12-05T01:26:15.521Z,101454.59
2022-12-05T01:28:41.992Z,101457.13
2022-12-05T01:31:10.233Z,101454.50
2022-12-05T01:33:36.600Z,101458.91
2022-12-05T01:36:03.611Z,101456.88
2022-12-05T01:38:31.349Z,101462.13
2022-12-05T01:41:01.937Z,101462.94
2022-12-05T01:43:28.564Z,101471.66
2022-12-05T01:45:54.972Z,101466.41
2022-12-05T01:48:23.744Z,101463.78
2022-12-05T01:50:50.446Z,101466.16
2022-12-05T01:53:17.481Z,101464.28
2022-12-05T01:55:45.788Z,101474.09
2022-12-05T01:58:12.106Z,101469.72
2022-12-05T02:00:39.628Z,101472.41
2022-12-05T02:03:07.676Z,101475.78
2022-12-05T02:05:35.329Z,101468.84
2022-12-05T02:08:02.653Z,101475.78
2022-12-05T02:10:30.707Z,101475.72
2022-12-05T02:12:59.757Z,101479.09
2022-12-05T02:15:33.851Z,101479.84
2022-12-05T02:18:07.394Z,101479.84
2022-12-05T02:20:38.567Z,101474.88
2022-12-05T02:23:26.171Z,101476.47
2022-12-05T02:26:19.684Z,101479.09
2022-12-05T02:29:01.676Z,101477.31
2022-12-05T02:31:32.792Z,101478.25
2022-12-05T02:34:02.358Z,101476.72
2022-12-05T02:36:32.717Z,101479.19
2022-12-05T02:39:02.216Z,101479.94
2022-12-05T02:41:32.740Z,101481.03
2022-12-05T02:44:01.601Z,101472.91
2022-12-05T02:46:30.576Z,101475.63
2022-12-05T02:48:58.731Z,101480.03
2022-12-05T02:51:28.982Z,101485.09
2022-12-05T02:53:58.227Z,101478.16
2022-12-05T02:56:25.568Z,101474.69
2022-12-05T02:58:53.331Z,101472.81
2022-12-05T03:01:19.869Z,101479.75
2022-12-05T03:03:47.887Z,101465.91
2022-12-05T03:06:17.811Z,101472.81
2022-12-05T03:08:47.250Z,101472.06
2022-12-05T03:11:13.652Z,101475.44
2022-12-05T03:13:41.726Z,101477.22
2022-12-05T03:16:11.532Z,101481.53
2022-12-05T03:18:40.057Z,101473.56
2022-12-05T03:21:14.631Z,101483.13
2022-12-05T03:23:44.467Z,101477.13
2022-12-05T03:26:16.415Z,101471.69
2022-12-05T03:28:49.277Z,101469.84
2022-12-05T03:31:20.077Z,101474.25
2022-12-05T03:33:48.736Z,101469.84
2022-12-05T03:36:19.400Z,101470.00
2022-12-05T03:38:49.219Z,101460.28
2022-12-05T03:41:20.530Z,101465.53
2022-12-05T03:43:50.678Z,101463.75
2022-12-05T03:46:22.565Z,101464.59
2022-12-05T03:48:53.047Z,101461.03
2022-12-05T03:51:22.205Z,101462.72
2022-12-05T03:53:51.351Z,101469.84
2022-12-05T03:56:20.238Z,101475.94
2022-12-05T03:58:49.311Z,101469.00
2022-12-05T04:01:17.694Z,101472.28
2022-12-05T04:03:46.486Z,101476.41
2022-12-05T04:06:17.228Z,101476.59
2022-12-05T04:08:47.568Z,101479.31
2022-12-05T04:11:15.679Z,101472.28
2022-12-05T04:13:43.889Z,101474.91
2022-12-05T04:16:12.849Z,101478.47
2022-12-05T04:18:42.647Z,101481.00
2022-12-05T04:21:10.222Z,101483.63
2022-12-05T04:23:36.586Z,101489.59
2022-12-05T04:26:12.282Z,101484.47
2022-12-05T04:28:45.316Z,101480.88
2022-12-05T04:31:15.147Z,101482.78
2022-12-05T04:33:42.986Z,101494.00
2022-12-05T04:36:12.716Z,101489.72
2022-12-05T04:38:41.933Z,101493.19
2022-12-05T04:41:13.014Z,101497.47
2022-12-05T04:43:40.750Z,101499.25
2022-12-05T04:46:08.805Z,101490.66
2022-12-05T04:48:37.414Z,101491.38
2022-12-05T04:51:04.488Z,101492.13
2022-12-05T04:53:31.157Z,101493.75
2022-12-05T04:55:59.198Z,101487.66
2022-12-05T04:58:27.758Z,101490.28
2022-12-05T05:00:56.361Z,101494.75
2022-12-05T05:03:24.854Z,101499.06
2022-12-05T05:05:52.993Z,101494.69
2022-12-05T05:08:20.567Z,101498.22
2022-12-05T05:10:51.618Z,101499.06
2022-12-05T05:13:17.903Z,101503.31
2022-12-05T05:15:45.593Z,101503.31
2022-12-05T05:18:11.967Z,101512.03
2022-12-05T05:20:38.678Z,101506.94
2022-12-05T05:23:05.025Z,101512.88
2022-12-05T05:25:31.335Z,101510.34
2022-12-05T05:27:57.642Z,101513.88
2022-12-05T05:30:24.868Z,101513.34
2022-12-05T05:32:52.858Z,101504.69
2022-12-05T05:35:19.528Z,101508.16
2022-12-05T05:37:46.139Z,101520.44
2022-12-05T05:40:13.648Z,101515.28
2022-12-05T05:42:42.296Z,101513.50
2022-12-05T05:45:09.357Z,101517.81
2022-12-05T05:47:35.660Z,101510.72
2022-12-05T05:50:03.831Z,101519.59
2022-12-05T05:52:32.170Z,101523.91
2022-12-05T05:54:58.483Z,101514.34
2022-12-05T05:57:24.804Z,101520.44
2022-12-05T05:59:51.291Z,101521.38
2022-12-05T06:02:17.715Z,101519.41
2022-12-05T06:04:44.211Z,101529.06
2022-12-05T06:07:11.890Z,101522.03
2022-12-05T06:09:38.407Z,101529.91
2022-12-05T06:12:05.076Z,101523.81
2022-12-05T06:14:31.367Z,101529.81
2022-12-05T06:16:57.705Z,101525.47
2022-12-05T06:19:24.058Z,101521.09
2022-12-05T06:21:50.435Z,101519.31
2022-12-05T06:24:18.096Z,101530.66
2022-12-05T06:26:44.381Z,101523.63
2022-12-05T06:29:10.659Z,101529.63
2022-12-05T06:31:36.991Z,101532.25
2022-12-05T06:34:03.968Z,101534.97
2022-12-05T06:36:30.791Z,101535.81
2022-12-05T06:38:57.101Z,101533.19
2022-12-05T06:41:24.964Z,101533.19
2022-12-05T06:43:52.018Z,101534.03
2022-12-05T06:46:18.402Z,101530.47
2022-12-05T06:48:44.770Z,101532.25
2022-12-05T06:51:11.624Z,101541.06
2022-12-05T06:53:38.159Z,101532.41
2022-12-05T06:56:05.615Z,101541.06
2022-12-05T06:58:33.429Z,101543.69
2022-12-05T07:00:59.802Z,101545.28
2022-12-05T07:03:26.131Z,101550.53
2022-12-05T07:05:52.442Z,101544.44
2022-12-05T07:08:18.818Z,101560.19
2022-12-05T07:10:50.497Z,101565.50
2022-12-05T07:13:16.897Z,101557.47
2022-12-05T07:15:45.689Z,101562.72
2022-12-05T07:18:12.070Z,101564.59
2022-12-05T07:21:04.007Z,101565.44
2022-12-05T07:23:24.618Z,101573.31
2022-12-05T07:25:50.952Z,101570.69
2022-12-05T07:28:17.283Z,101574.06
2022-12-05T07:30:44.952Z,101577.44
2022-12-05T07:33:11.295Z,101573.06
2022-12-05T07:35:37.596Z,101583.53
2022-12-05T07:38:03.908Z,101582.69
2022-12-05T07:40:30.198Z,101579.22
2022-12-05T07:42:56.496Z,101587.00
2022-12-05T07:45:22.812Z,101583.53
2022-12-05T07:47:50.571Z,101587.00
2022-12-05T07:50:16.997Z,101587.75
2022-12-05T07:52:43.315Z,101584.19
2022-12-05T07:55:09.896Z,101578.28
2022-12-05T07:57:36.244Z,101583.44
2022-12-05T08:00:03.530Z,101585.88
2022-12-05T08:02:29.986Z,101586.81
2022-12-05T08:04:57.652Z,101591.13
2022-12-05T08:07:23.940Z,101597.13
2022-12-05T08:09:50.238Z,101596.22
2022-12-05T08:12:16.531Z,101599.75
2022-12-05T08:14:42.814Z,101600.53
2022-12-05T08:17:09.174Z,101603.16
2022-12-05T08:19:35.594Z,101609.16
2022-12-05T08:22:03.240Z,101613.56
2022-12-05T08:24:29.515Z,101616.28
2022-12-05T08:26:55.861Z,101618.91
2022-12-05T08:29:22.370Z,101618.06
2022-12-05T08:31:49.647Z,101623.22
2022-12-05T08:34:16.784Z,101629.31
2022-12-05T08:36:43.333Z,101630.16
2022-12-05T08:39:13.067Z,101628.25
2022-12-05T08:41:39.748Z,101625.75
2022-12-05T08:44:06.571Z,101630.06
2022-12-05T08:46:33.791Z,101631.75
2022-12-05T08:49:00.128Z,101635.22
2022-12-05T08:51:26.443Z,101638.69
2022-12-05T08:53:52.719Z,101643.94
2022-12-05T08:56:24.970Z,101638.69
2022-12-05T08:58:53.071Z,101642.06
2022-12-05T09:01:20.556Z,101646.38
2022-12-05T09:03:48.302Z,101649.94
2022-12-05T09:06:15.491Z,101645.53
2022-12-05T09:08:42.494Z,101649.09
2022-12-05T09:11:09.670Z,101655.09
2022-12-05T09:13:37.384Z,101658.66
2022-12-05T09:16:07.046Z,101659.50
2022-12-05T09:18:33.411Z,101662.91
2022-12-05T09:21:04.650Z,101660.28
2022-12-05T09:23:30.976Z,101662.06
2022-12-05T09:25:57.281Z,101663.91
2022-12-05T09:28:23.729Z,101667.47
2022-12-05T09:30:56.956Z,101667.38
2022-12-05T09:33:23.336Z,101665.59
2022-12-05T09:35:49.651Z,101669.00
2022-12-05T09:38:15.929Z,101672.38
2022-12-05T09:40:42.250Z,101674.94
2022-12-05T09:43:15.667Z,101672.38
2022-12-05T09:45:47.089Z,101681.75
2022-12-05T09:48:16.071Z,101677.34
2022-12-05T09:50:45.260Z,101683.44
2022-12-05T09:53:16.691Z,101677.28
2022-12-05T09:55:48.227Z,101685.06
2022-12-05T09:58:20.932Z,101679.81
2022-12-05T10:00:47.767Z,101674.41
2022-12-05T10:03:21.750Z,101676.94
2022-12-05T10:05:52.775Z,101679.56
2022-12-05T10:08:21.644Z,101682.06
2022-12-05T10:10:54.842Z,101677.66
2022-12-05T10:13:24.800Z,101681.06
2022-12-05T10:15:56.977Z,101672.41
2022-12-05T10:18:33.766Z,101671.50
2022-12-05T10:21:02.473Z,101678.44
2022-12-05T10:26:17.427Z,101674.69
2022-12-05T10:28:49.485Z,101674.53
2022-12-05T10:31:18.616Z,101678.94
2022-12-05T10:33:48.999Z,101678.94
2022-12-05T10:36:15.509Z,101676.19
2022-12-05T10:38:42.821Z,101671.72
2022-12-05T10:41:10.359Z,101676.03
2022-12-05T10:43:37.289Z,101679.59
2022-12-05T10:46:05.621Z,101682.22
2022-12-05T10:48:35.245Z,101676.13
2022-12-05T10:51:03.640Z,101679.78
2022-12-05T10:53:37.913Z,101679.78
2022-12-05T10:56:31.512Z,101674.53
2022-12-05T10:58:58.415Z,101678.81
2022-12-05T11:01:26.538Z,101675.47
2022-12-05T11:03:55.983Z,101678.81
2022-12-05T11:06:25.338Z,101675.34
2022-12-05T11:09:07.746Z,101681.56
2022-12-05T11:11:34.381Z,101666.75
2022-12-05T11:14:02.208Z,101674.53
2022-12-05T11:16:29.729Z,101678.25
2022-12-05T11:18:56.157Z,101674.09
2022-12-05T11:21:23.862Z,101672.41
2022-12-05T11:23:50.204Z,101676.81
2022-12-05T11:26:17.977Z,101679.28
2022-12-05T11:28:44.360Z,101677.41
2022-12-05T11:31:20.707Z,101672.94
2022-12-05T11:34:02.135Z,101678.19
2022-12-05T11:36:35.635Z,101667.75
2022-12-05T11:39:01.943Z,101666.75
2022-12-05T11:41:38.171Z,101673.56
2022-12-05T11:44:13.628Z,101672.00
2022-12-05T11:46:48.352Z,101665.13
2022-12-05T11:49:24.659Z,101668.53
2022-12-05T11:51:58.095Z,101672.72
2022-12-05T11:55:03.511Z,101673.56
2022-12-05T11:57:25.939Z,101669.94
2022-12-05T12:00:07.032Z,101666.38
2022-12-05T12:02:41.067Z,101666.28
2022-12-05T12:05:12.816Z,101668.75
2022-12-05T12:07:48.763Z,101664.41
2022-12-05T12:10:21.070Z,101665.34
2022-12-05T12:12:53.771Z,101660.00
2022-12-05T12:15:30.175Z,101654.84
2022-12-05T12:17:59.952Z,101667.91
2022-12-05T12:20:32.413Z,101666.28
2022-12-05T12:23:12.414Z,101667.13
2022-12-05T12:25:43.002Z,101664.25
2022-12-05T12:28:20.311Z,101658.78
2022-12-05T12:30:54.500Z,101652.59
2022-12-05T12:33:27.734Z,101657.94
2022-12-05T12:35:56.862Z,101658.78
2022-12-05T12:38:36.003Z,101656.16
2022-12-05T12:41:06.515Z,101660.66
2022-12-05T12:43:57.071Z,101655.59
2022-12-05T12:46:30.151Z,101655.88
2022-12-05T12:49:09.792Z,101648.06
2022-12-05T12:51:42.556Z,101648.06
2022-12-05T12:54:40.451Z,101644.81
2022-12-05T12:57:18.130Z,101643.66
2022-12-05T12:59:53.111Z,101636.25
2022-12-05T13:02:24.062Z,101642.19
2022-12-05T13:04:52.894Z,101644.81
2022-12-05T13:07:23.188Z,101638.34
2022-12-05T13:09:54.394Z,101634.78
2022-12-05T13:12:23.330Z,101635.88
2022-12-05T13:14:52.471Z,101637.66
2022-12-05T13:17:20.584Z,101640.63
2022-12-05T13:19:48.324Z,101639.75
2022-12-05T13:22:16.827Z,101636.81
2022-12-05T13:24:43.163Z,101643.03
2022-12-05T13:27:15.853Z,101644.81
2022-12-05T13:29:43.085Z,101643.03
2022-12-05T13:32:24.732Z,101639.97
2022-12-05T13:34:51.508Z,101635.94
2022-12-05T13:37:22.322Z,101640.25
2022-12-05T13:39:50.909Z,101641.44
2022-12-05T13:42:24.017Z,101648.47
2022-12-05T13:44:52.565Z,101646.63
2022-12-05T13:47:26.332Z,101645.78
2022-12-05T13:49:55.028Z,101650.84
2022-12-05T13:52:23.346Z,101654.97
2022-12-05T13:54:53.947Z,101649.56
2022-12-05T13:57:35.127Z,101651.31
2022-12-05T14:00:04.852Z,101649.63
2022-12-05T14:02:51.561Z,101654.25
2022-12-05T14:05:36.352Z,101657.50
2022-12-05T14:08:30.622Z,101657.34
2022-12-05T14:11:07.659Z,101660.72
2022-12-05T14:13:41.304Z,101661.75
2022-12-05T14:16:26.305Z,101653.94
2022-12-05T14:18:58.272Z,101667.75
2022-12-05T14:21:34.137Z,101662.50
2022-12-05T14:24:04.313Z,101664.97
2022-12-05T14:26:40.919Z,101671.16
2022-12-05T14:29:22.759Z,101669.38
2022-12-05T14:32:03.952Z,101670.22
2022-12-05T14:34:33.584Z,101664.03
2022-12-05T14:37:01.659Z,101668.31
2022-12-05T14:39:31.707Z,101663.06
2022-12-05T14:41:59.408Z,101661.28
2022-12-05T14:44:25.846Z,101662.13
2022-12-05T14:46:52.154Z,101662.13
2022-12-05T14:49:38.176Z,101665.69
2022-12-05T14:52:09.924Z,101669.09
2022-12-05T14:54:37.444Z,101672.38
2022-12-05T14:57:09.832Z,101664.50
2022-12-05T14:59:43.363Z,101674.00
2022-12-05T15:02:16.086Z,101669.59
2022-12-05T15:04:46.568Z,101668.75
2022-12-05T15:07:16.569Z,101676.63
2022-12-05T15:09:46.695Z,101670.53
2022-12-05T15:12:15.241Z,101672.31
2022-12-05T15:14:44.158Z,101677.72
2022-12-05T15:17:14.701Z,101676.97
2022-12-05T15:19:47.090Z,101686.69
2022-12-05T15:22:14.477Z,101683.22
2022-12-05T15:24:40.793Z,101684.06
2022-12-05T15:27:09.810Z,101685.84
2022-12-05T15:29:36.937Z,101691.22
2022-12-05T15:32:04.342Z,101692.91
2022-12-05T15:34:32.761Z,101685.13
2022-12-05T15:37:04.358Z,101694.56
2022-12-05T15:39:49.298Z,101680.50
2022-12-05T15:42:16.039Z,101685.69
2022-12-05T15:44:42.479Z,101683.16
2022-12-05T15:47:19.042Z,101691.09
2022-12-05T15:49:45.748Z,101693.84
2022-12-05T15:52:18.699Z,101700.19
2022-12-05T15:54:45.711Z,101698.41
2022-12-05T15:57:16.161Z,101699.34
2022-12-05T15:59:43.762Z,101702.66
2022-12-05T16:02:14.575Z,101702.47
2022-12-05T16:04:44.080Z,101703.13
2022-12-05T16:07:11.646Z,101703.13
2022-12-05T16:09:41.137Z,101700.44
2022-12-05T16:12:17.020Z,101705.59
2022-12-05T16:15:00.275Z,101701.28
2022-12-05T16:17:28.787Z,101708.22
2022-12-05T16:20:09.348Z,101705.50
2022-12-05T16:22:35.683Z,101709.06
2022-12-05T16:25:13.548Z,101701.09
2022-12-05T16:27:39.865Z,101706.34
2022-12-05T16:30:07.555Z,101707.22
2022-12-05T16:32:34.719Z,101703.66
2022-12-05T16:35:01.091Z,101709.72
2022-12-05T16:37:28.408Z,101707.94
2022-12-05T16:39:55.079Z,101709.63
2022-12-05T16:42:24.650Z,101710.56
2022-12-05T16:44:55.545Z,101717.59
2022-12-05T16:47:22.959Z,101707.94
2022-12-05T16:49:49.374Z,101707.22
2022-12-05T16:52:16.071Z,101716.00
2022-12-05T16:54:42.598Z,101713.31
2022-12-05T16:57:11.939Z,101706.34
2022-12-05T16:59:40.785Z,101701.94
2022-12-05T17:02:10.199Z,101704.56
2022-12-05T17:04:36.621Z,101705.50
2022-12-05T17:07:03.019Z,101710.75
2022-12-05T17:09:29.391Z,101710.75
2022-12-05T17:12:01.220Z,101709.06
2022-12-05T17:14:27.584Z,101705.50
2022-12-05T17:16:55.259Z,101715.09
2022-12-05T17:19:21.565Z,101710.69
2022-12-05T17:21:47.864Z,101710.56
2022-12-05T17:24:15.300Z,101700.06
2022-12-05T17:26:41.709Z,101710.56
2022-12-05T17:29:08.106Z,101708.91
2022-12-05T17:31:34.453Z,101714.03
2022-12-05T17:34:02.393Z,101712.25
2022-12-05T17:36:28.683Z,101714.16
2022-12-05T17:38:55.133Z,101717.59
2022-12-05T17:41:22.116Z,101710.56
2022-12-05T17:43:48.473Z,101710.56
2022-12-05T17:46:16.033Z,101716.78
2022-12-05T17:48:42.365Z,101717.50
2022-12-05T17:51:10.304Z,101720.06
2022-12-05T17:53:37.063Z,101727.94
2022-12-05T17:56:03.481Z,101725.31
2022-12-05T17:58:29.793Z,101724.47
2022-12-05T18:00:56.167Z,101727.00
2022-12-05T18:03:22.620Z,101726.16
2022-12-05T18:05:49.008Z,101728.78
2022-12-05T18:08:16.788Z,101728.78
2022-12-05T18:10:43.933Z,101730.47
2022-12-05T18:13:10.539Z,101731.31
2022-12-05T18:15:42.487Z,101740.03
2022-12-05T18:18:13.343Z,101735.63
2022-12-05T18:20:39.684Z,101732.16
2022-12-05T18:23:06.016Z,101724.28
2022-12-05T18:25:33.681Z,101721.56
2022-12-05T18:27:59.997Z,101722.44
2022-12-05T18:30:26.364Z,101724.13
2022-12-05T18:32:52.635Z,101731.91
2022-12-05T18:35:18.954Z,101734.44
2022-12-05T18:37:45.302Z,101736.19
2022-12-05T18:40:12.086Z,101737.91
2022-12-05T18:42:39.841Z,101743.91
2022-12-05T18:45:06.811Z,101742.13
2022-12-05T18:47:33.214Z,101744.75
2022-12-05T18:49:59.556Z,101736.78
2022-12-05T18:52:26.058Z,101747.31
2022-12-05T18:55:09.259Z,101740.34
2022-12-05T18:57:40.250Z,101743.84
2022-12-05T19:00:07.758Z,101749.84
2022-12-05T19:02:34.179Z,101744.59
2022-12-05T19:05:02.356Z,101751.53
2022-12-05T19:07:28.658Z,101758.50
2022-12-05T19:09:54.984Z,101756.78
2022-12-05T19:12:21.299Z,101757.72
2022-12-05T19:14:48.962Z,101753.25
2022-12-05T19:17:15.308Z,101755.78
2022-12-05T19:19:41.614Z,101760.06
2022-12-05T19:22:07.913Z,101759.13
2022-12-05T19:24:34.189Z,101759.91
2022-12-05T19:27:00.486Z,101766.94
2022-12-05T19:29:26.795Z,101773.03
2022-12-05T19:31:54.499Z,101776.50
2022-12-05T19:34:21.035Z,101777.28
2022-12-05T19:36:47.308Z,101772.09
2022-12-05T19:39:15.479Z,101777.44
2022-12-05T19:41:41.835Z,101781.00
2022-12-05T19:44:08.216Z,101783.47
2022-12-05T19:46:35.144Z,101781.69
2022-12-05T19:49:04.079Z,101784.41
2022-12-05T19:51:30.766Z,101776.59
2022-12-05T19:53:58.207Z,101776.59
2022-12-05T19:56:25.217Z,101765.25
2022-12-05T19:58:52.812Z,101767.78
2022-12-05T20:01:20.207Z,101770.31
2022-12-05T20:03:47.286Z,101769.41
2022-12-05T20:06:15.540Z,101760.66
2022-12-05T20:08:42.125Z,101762.34
2022-12-05T20:11:09.228Z,101764.13
2022-12-05T20:13:46.511Z,101777.09
2022-12-05T20:16:14.671Z,101769.31
2022-12-05T20:18:41.356Z,101772.88
2022-12-05T20:21:09.111Z,101771.16
2022-12-05T20:23:36.949Z,101770.31
2022-12-05T20:26:04.545Z,101775.59
2022-12-05T20:28:30.874Z,101769.41
2022-12-05T20:31:02.857Z,101774.56
2022-12-05T20:33:29.233Z,101763.22
2022-12-05T20:35:58.342Z,101764.06
2022-12-05T20:38:24.674Z,101770.91
2022-12-05T20:40:52.340Z,101772.59
2022-12-05T20:43:18.655Z,101769.03
2022-12-05T20:45:45.176Z,101769.97
2022-12-05T20:48:11.532Z,101758.63
2022-12-05T20:50:37.840Z,101763.75
2022-12-05T20:53:04.151Z,101761.13
2022-12-05T20:55:30.452Z,101755.03
2022-12-05T20:58:01.228Z,101763.59
2022-12-05T21:00:31.213Z,101766.22
2022-12-05T21:02:57.574Z,101767.06
2022-12-05T21:05:23.903Z,101767.00
2022-12-05T21:07:50.246Z,101758.16
2022-12-05T21:10:16.678Z,101751.22
2022-12-05T21:12:42.983Z,101753.84
2022-12-05T21:15:11.073Z,101751.97
2022-12-05T21:17:37.370Z,101748.50
2022-12-05T21:20:04.497Z,101748.34
2022-12-05T21:22:30.852Z,101743.88
2022-12-05T21:24:57.203Z,101749.06
2022-12-05T21:27:23.521Z,101750.75
2022-12-05T21:29:49.808Z,101750.66
2022-12-05T21:32:17.529Z,101759.41
2022-12-05T21:34:43.887Z,101757.63
2022-12-05T21:37:10.205Z,101754.91
2022-12-05T21:39:36.484Z,101765.34
2022-12-05T21:42:02.754Z,101756.50
2022-12-05T21:44:29.024Z,101754.72
2022-12-05T21:46:55.490Z,101751.16
2022-12-05T21:49:23.122Z,101757.06
2022-12-05T21:51:49.442Z,101757.16
2022-12-05T21:54:15.726Z,101757.06
2022-12-05T21:56:42.030Z,101766.66
2022-12-05T21:59:08.339Z,101759.53
2022-12-05T22:01:34.742Z,101764.78
2022-12-05T22:04:01.130Z,101762.91
2022-12-05T22:06:29.328Z,101767.25
2022-12-05T22:08:55.710Z,101764.59
2022-12-05T22:11:22.908Z,101761.91
2022-12-05T22:13:49.412Z,101767.97
2022-12-05T22:16:16.188Z,101763.56
2022-12-05T22:18:42.614Z,101766.09
2022-12-05T22:21:11.084Z,101769.66
2022-12-05T22:23:38.935Z,101760.84
2022-12-05T22:26:06.614Z,101765.06
2022-12-05T22:28:33.231Z,101768.16
2022-12-05T22:31:00.379Z,101767.06
2022-12-05T22:33:27.549Z,101759.00
2022-12-05T22:35:54.815Z,101766.69
2022-12-05T22:38:21.132Z,101768.19
2022-12-05T22:40:53.780Z,101766.22
2022-12-05T22:43:20.091Z,101765.19
2022-12-05T22:45:46.367Z,101773.09
2022-12-05T22:48:12.640Z,101770.63
2022-12-05T22:50:39.153Z,101769.88
2022-12-05T22:53:05.438Z,101767.16
2022-12-05T22:55:31.970Z,101767.06
2022-12-05T22:57:59.739Z,101766.03
2022-12-05T23:00:26.073Z,101756.38
2022-12-05T23:02:52.460Z,101761.50
2022-12-05T23:05:18.869Z,101756.25
2022-12-05T23:07:45.243Z,101758.78
2022-12-05T23:10:11.657Z,101765.56
2022-12-05T23:12:37.971Z,101760.31
2022-12-05T23:15:06.376Z,101758.44
2022-12-05T23:17:32.899Z,101765.38
2022-12-05T23:19:59.475Z,101764.31
2022-12-05T23:22:26.077Z,101758.22
2022-12-05T23:24:52.493Z,101761.91
2022-12-05T23:27:18.867Z,101760.13
2022-12-05T23:29:45.231Z,101746.03
2022-12-05T23:32:13.044Z,101743.50
2022-12-05T23:34:39.364Z,101742.44
2022-12-05T23:37:05.685Z,101744.34
2022-12-05T23:39:32.008Z,101740.56
2022-12-05T23:41:58.385Z,101750.22
2022-12-05T23:44:24.725Z,101754.47
2022-12-05T23:46:51.121Z,101753.63
2022-12-05T23:49:18.894Z,101752.50
2022-12-05T23:51:45.272Z,101747.88
2022-12-05T23:54:11.643Z,101747.78
2022-12-05T23:56:38.506Z,101742.50
2022-12-05T23:59:05.707Z,101751.25
